Station: Moorabbin Airport  

  Atmospheric Gas Attenuation - ITU Rec 676-11   ----------------- dB/100km -----------------
Date Time Temp RH % AH g/m3 Dew Point Wind Direction Speed kph Gust kph Barometer mB Rainfall Since 9am 24GHz 47GHz 76GHz 122GHz 134GHz 241GHz
08/05 12:30 14.1 83 10.07 11.3 24 35 1023.2 0.4 22.7 28.6 46.2 121.3 118.8 409.9
08/05 12:20 14 83 10.01 11.2 26 39 1023.3 0.4 22.6 28.6 46.0 120.8 118.1 407.5
08/05 12:10 13.7 82 9.71 10.7 26 43 1023.5 0.4 22.0 28.2 44.9 117.9 114.5 394.5
08/05 12:00 15.3 77 10.06 11.3 22 33 1023.4 0 22.6 28.2 45.4 119.4 116.9 403.2
08/05 11:50 14.9 77 9.81 10.9 24 37 1023.5 0 22.1 27.9 44.6 117.2 114.0 393.3
08/05 11:40 14.3 78 9.58 10.5 26 43 1023.6 0 21.6 27.8 44.0 115.6 111.8 385.3
08/05 11:30 15.1 80 10.32 11.7 19 26 1023.4 0 23.2 28.7 46.6 122.6 120.8 416.8
08/05 11:20 14.4 81 10.01 11.2 20 32 1023.4 0 22.6 28.4 45.8 120.2 117.5 405.4
08/05 11:10 14.3 83 10.2 11.5 22 35 1023.4 0 23.0 28.8 46.6 122.5 120.3 415.2
08/05 11:00 15 79 10.13 11.4 20 30 1023.2 0 22.8 28.4 45.9 120.6 118.3 408.0
08/05 10:50 14.2 81 9.89 11 22 35 1023.1 0 22.3 28.3 45.3 119.1 116.2 400.6
08/05 10:40 13.6 85 10 11.1 22 33 1023 0 22.6 28.7 46.2 121.3 118.6 409.0
08/05 10:30 13.5 88 10.29 11.6 20 26 1023.1 0 23.2 29.2 47.5 124.8 122.9 423.9
08/05 10:20 13.8 86 10.25 11.5 24 39 1022.9 0 23.1 29.0 47.1 123.8 121.8 420.2
08/05 10:10 14.6 84 10.51 11.9 20 39 1022.8 0 23.6 29.2 47.7 125.5 124.2 428.6
08/05 10:00 13.9 89 10.67 12.1 19 30 1022.8 0 24.0 29.7 48.9 128.5 127.6 440.4
08/05 09:50 13.3 86 9.94 11 24 35 1022.7 0 22.5 28.6 46.1 121.0 118.2 407.6
08/05 09:40 14 85 10.25 11.5 20 32 1022.6 0 23.1 28.9 47.0 123.4 121.4 419.0
08/05 09:30 13.7 87 10.3 11.6 20 28 1022.7 0 23.2 29.1 47.4 124.5 122.6 423.1
08/05 09:20 13.9 87 10.43 11.8 19 28 1022.6 0 23.5 29.3 47.8 125.7 124.1 428.4
08/05 09:10 13.5 88 10.29 11.6 20 30 1022.3 0 23.2 29.2 47.4 124.7 122.8 423.6
08/05 09:00 13.1 91 10.38 11.7 19 30 1022.3 0 23.4 29.5 48.1 126.4 124.7 430.3
08/05 08:50 13 92 10.43 11.7 19 30 1022.2 7.8 23.5 29.6 48.3 127.1 125.6 433.3
08/05 08:40 12.9 89 10.03 11.1 20 32 1022.4 7.8 22.7 28.9 46.7 122.7 120.1 414.0
08/05 08:30 13.5 89 10.41 11.7 22 35 1022 7.4 23.5 29.4 47.9 126.0 124.5 429.5
08/05 08:20 13 88 9.98 11.1 26 43 1021.9 7.4 22.6 28.8 46.4 121.9 119.1 410.8
08/05 08:10 13.4 88 10.23 11.5 20 32 1021.9 7.4 23.1 29.1 47.2 124.1 122.0 421.0
08/05 08:00 13 89 10.09 11.2 20 28 1021.8 7.4 22.8 29.0 46.8 123.1 120.7 416.3
08/05 07:50 12.9 90 10.14 11.3 22 33 1021.7 7.4 22.9 29.1 47.1 123.8 121.5 419.2
08/05 07:40 12.9 91 10.26 11.5 22 35 1021.5 7.4 23.2 29.3 47.6 125.2 123.2 425.1
08/05 07:30 12.9 91 10.26 11.5 22 32 1021.3 7.2 23.2 29.3 47.6 125.2 123.2 425.1
08/05 07:20 13 91 10.32 11.6 20 30 1021.1 7.2 23.3 29.3 47.8 125.7 123.9 427.5
08/05 07:10 13 90 10.21 11.4 20 30 1020.9 7 23.1 29.1 47.3 124.4 122.3 421.9
08/05 07:00 13.1 90 10.27 11.5 20 35 1020.9 7 23.2 29.2 47.5 124.9 123.0 424.3
08/05 06:50 13 91 10.32 11.6 20 30 1020.8 7 23.3 29.3 47.8 125.7 123.9 427.4
08/05 06:40 12.8 92 10.31 11.5 20 30 1020.8 7 23.3 29.4 47.9 125.9 124.0 428.0
08/05 06:30 13 91 10.32 11.6 24 35 1020.8 7 23.3 29.3 47.8 125.7 123.9 427.4
08/05 06:20 13.1 89 10.16 11.3 20 32 1020.8 6.8 23.0 29.0 47.0 123.6 121.4 418.9
08/05 06:10 13 90 10.21 11.4 22 35 1020.9 6.6 23.1 29.1 47.3 124.4 122.3 421.9
08/05 06:00 13.1 89 10.16 11.3 22 30 1020.7 6.4 23.0 29.0 47.0 123.6 121.4 418.8
08/05 05:50 13.1 89 10.16 11.3 26 39 1020.6 6.4 23.0 29.0 47.0 123.6 121.4 418.8
08/05 05:40 13.2 88 10.1 11.3 26 39 1020.4 6.2 22.8 28.9 46.7 122.7 120.4 415.2
08/05 05:30 13.2 87 9.99 11.1 20 33 1020.1 6.2 22.6 28.7 46.2 121.5 118.8 409.7
08/05 05:20 13.2 88 10.1 11.3 22 35 1020.1 6.2 22.8 28.9 46.7 122.7 120.4 415.1
08/05 05:10 13.4 85 9.88 10.9 24 41 1020.1 6.2 22.3 28.4 45.6 119.9 117.0 403.3
08/05 05:00 13.5 85 9.94 11 22 35 1019.9 6.2 22.5 28.5 45.8 120.4 117.6 405.6
08/05 04:50 13.4 86 10 11.1 24 39 1019.9 6.2 22.6 28.6 46.1 121.2 118.6 409.1
08/05 04:40 13.5 84 9.83 10.9 26 43 1019.8 6.2 22.2 28.3 45.3 119.1 116.1 400.2
08/05 04:30 13.6 84 9.89 11 24 39 1019.7 6.2 22.4 28.3 45.5 119.7 116.8 402.6
08/05 04:20 13.5 84 9.83 10.9 24 35 1019.6 6.2 22.2 28.3 45.3 119.1 116.1 400.2
08/05 04:10 13.5 84 9.83 10.9 20 35 1019.6 6.2 22.2 28.3 45.3 119.1 116.1 400.2
08/05 04:00 13.4 84 9.77 10.8 22 35 1019.5 6.2 22.1 28.2 45.1 118.6 115.4 397.7
08/05 03:50 13.3 84 9.71 10.7 22 32 1019.4 6.2 22.0 28.1 44.9 118.0 114.7 395.3
08/05 03:40 13.3 84 9.71 10.7 22 37 1019.4 6.2 22.0 28.1 44.9 118.0 114.7 395.3
08/05 03:30 13.1 85 9.7 10.6 20 33 1019.3 6.2 22.0 28.2 45.0 118.2 114.8 395.8
08/05 03:20 13.1 84 9.59 10.5 24 37 1019.4 6.2 21.7 28.0 44.5 117.0 113.3 390.5
08/05 03:10 13.3 84 9.71 10.7 26 41 1019.2 6.2 22.0 28.1 44.9 118.0 114.7 395.2
08/05 03:00 13 85 9.64 10.5 22 33 1019.3 6.2 21.8 28.1 44.8 117.7 114.1 393.4
08/05 02:50 13 84 9.53 10.4 24 39 1019.2 6.2 21.6 27.9 44.3 116.4 112.6 388.0
08/05 02:40 12.7 84 9.35 10.1 24 41 1019.4 6.2 21.2 27.7 43.7 114.9 110.6 380.8
08/05 02:30 13 84 9.53 10.4 26 44 1019.4 6.2 21.6 27.9 44.3 116.5 112.6 388.1
08/05 02:20 12.9 84 9.47 10.3 26 50 1019.5 6.2 21.5 27.8 44.1 115.9 111.9 385.7
08/05 02:10 12.9 84 9.47 10.3 26 39 1019.5 6.2 21.5 27.8 44.1 115.9 111.9 385.7
08/05 02:00 13.1 85 9.7 10.6 24 35 1019.5 6.2 22.0 28.2 45.0 118.2 114.8 395.8
08/05 01:50 12.7 84 9.35 10.1 28 44 1019.5 6.2 21.2 27.7 43.8 114.9 110.6 380.8
08/05 01:40 12.7 84 9.35 10.1 26 39 1019.6 6.2 21.2 27.7 43.8 114.9 110.6 380.9
08/05 01:30 13 84 9.53 10.4 26 44 1019.7 6.2 21.6 27.9 44.4 116.5 112.6 388.1
08/05 01:20 12.8 84 9.41 10.2 26 43 1019.9 6.2 21.4 27.8 44.0 115.5 111.3 383.4
08/05 01:10 13 84 9.53 10.4 24 39 1020 6.2 21.6 27.9 44.4 116.5 112.7 388.2
08/05 01:00 12.6 84 9.29 10 24 35 1020.1 6.2 21.1 27.7 43.6 114.4 109.9 378.6
08/05 00:50 12.4 84 9.18 9.8 26 44 1020.2 6.2 20.9 27.5 43.2 113.5 108.7 374.3
08/05 00:40 12.4 84 9.18 9.8 26 41 1020.3 6.2 20.9 27.5 43.2 113.5 108.7 374.3
08/05 00:30 12.4 84 9.18 9.8 28 39 1020.3 6.2 20.9 27.5 43.2 113.5 108.7 374.3
08/05 00:20 12.3 83 9.01 9.5 28 43 1020.4 6.2 20.5 27.3 42.6 111.8 106.5 366.6
08/05 00:10 12.1 84 9.01 9.5 26 43 1020.6 6.2 20.5 27.4 42.7 112.1 106.8 367.6
08/05 00:00 12.2 83 8.96 9.4 26 39 1020.6 6.2 20.4 27.2 42.4 111.4 106.0 364.7
07/05 23:50 12.2 83 8.96 9.4 22 43 1020.7 6.2 20.4 27.3 42.4 111.4 106.0 364.8
07/05 23:40 12 83 8.85 9.2 22 43 1020.6 6.2 20.2 27.1 42.1 110.4 104.8 360.4
07/05 23:30 12.1 83 8.9 9.3 20 32 1020.8 6.2 20.3 27.2 42.3 110.9 105.3 362.4
07/05 23:20 11.9 83 8.79 9.1 24 35 1020.7 6.2 20.1 27.1 41.9 109.9 104.1 358.0
07/05 23:10 11.9 83 8.79 9.1 22 33 1021 6.2 20.1 27.1 41.9 109.9 104.1 358.1
07/05 23:00 11.9 83 8.79 9.1 22 33 1021.3 6.2 20.1 27.1 41.9 110.0 104.1 358.2
07/05 22:50 11.6 83 8.63 8.8 22 35 1021.4 6.2 19.8 26.9 41.4 108.6 102.3 351.9
07/05 22:40 11.6 83 8.63 8.8 24 35 1021.5 6.2 19.8 26.9 41.4 108.6 102.3 351.9
07/05 22:30 11.4 83 8.52 8.6 26 43 1021.6 6.2 19.5 26.8 41.1 107.7 101.1 347.6
07/05 22:20 11.4 82 8.42 8.4 26 35 1021.7 6.2 19.3 26.6 40.7 106.6 99.8 342.8
07/05 22:10 11.6 81 8.42 8.5 22 32 1021.7 6.2 19.3 26.6 40.6 106.3 99.5 341.9
07/05 22:00 11.5 81 8.37 8.4 24 37 1021.8 6.2 19.2 26.5 40.4 105.9 99.0 340.0
07/05 21:50 11.5 81 8.37 8.4 22 33 1021.8 6.2 19.2 26.5 40.4 105.9 99.0 340.0
07/05 21:40 11.5 80 8.26 8.2 24 39 1021.7 6.2 19.0 26.3 40.0 104.7 97.4 334.8
07/05 21:30 11.5 81 8.37 8.4 26 43 1021.7 6.2 19.2 26.5 40.4 105.9 98.9 340.0
07/05 21:20 11.4 80 8.21 8.1 26 39 1021.7 6.2 18.9 26.3 39.8 104.3 96.9 332.8
07/05 21:10 11.3 81 8.26 8.2 24 35 1021.6 6.2 19.0 26.4 40.0 105.0 97.7 335.6
07/05 21:00 11.2 81 8.21 8.1 24 35 1021.6 6.2 18.9 26.3 39.9 104.6 97.1 333.6
07/05 20:50 11.1 82 8.26 8.1 26 43 1021.6 6.2 19.0 26.4 40.2 105.2 97.9 336.4
07/05 20:40 10.9 84 8.36 8.3 24 37 1021.9 6.2 19.2 26.7 40.7 106.6 99.6 342.2
07/05 20:30 10.8 87 8.6 8.7 22 35 1022 6.2 19.7 27.1 41.7 109.5 103.0 354.2
07/05 20:20 10.9 85 8.46 8.5 28 44 1022.2 6.2 19.4 26.9 41.1 107.8 101.0 347.1
07/05 20:10 11 82 8.21 8 26 46 1022.2 6 18.9 26.4 40.0 104.9 97.4 334.7
07/05 20:00 11.5 76 7.85 7.4 28 43 1022.2 6 18.1 25.7 38.3 100.3 92.0 315.6

Last Refresh: 08-May-2026 12:08:00

Bureau of Meteorology